Time;durP1;ratioP1;P1;durP2;ratioP2;P2;SDS_P1;SDS_P2;PMS_P1;PMS_P2;Temp;Humidity;BMP_temperature;BMP_pressure;BME280_temperature;BME280_humidity;BME280_pressure;Samples;Min_cycle;Max_cycle;Signal;HPM_P1;HPM_P2
2023/06/29 00:01:06;;;;;;;;;;;;;;;16.37;55.00;100674.13;5046634;28;1115;-57
2023/06/29 00:03:32;;;;;;;;;;;;;;;16.37;54.58;100671.41;5052042;28;1210;-57
2023/06/29 00:05:58;;;;;;;;;;;;;;;16.39;54.44;100679.34;5046995;28;1123;-57
2023/06/29 00:08:24;;;;;;;;;;;;;;;16.58;55.77;100685.13;5055912;28;1403;-57
2023/06/29 00:10:50;;;;;;;;;;;;;;;17.57;56.74;100689.25;5055813;28;839;-57
2023/06/29 00:13:16;;;;;;;;;;;;;;;17.04;56.80;100693.31;5055902;28;1905;-57
2023/06/29 00:15:42;;;;;;;;;;;;;;;16.82;56.21;100699.09;5055697;28;1159;-58
2023/06/29 00:18:09;;;;;;;;;;;;;;;16.67;55.75;100688.94;5055990;28;1044;-58
2023/06/29 00:20:35;;;;;;;;;;;;;;;16.56;55.68;100687.28;5059382;28;1118;-58
2023/06/29 00:23:01;;;;;;;;;;;;;;;16.49;55.38;100675.78;5054288;28;1009;-57
2023/06/29 00:25:26;;;;;;;;;;;;;;;16.50;54.82;100677.44;5051239;28;1024;-57
2023/06/29 00:27:52;;;;;;;;;;;;;;;16.39;54.58;100669.19;5059248;28;1112;-58
2023/06/29 00:30:19;;;;;;;;;;;;;;;16.33;54.77;100670.28;5059620;28;1052;-57
2023/06/29 00:32:44;;;;;;;;;;;;;;;17.35;57.11;100665.72;5041547;28;1898;-58
2023/06/29 00:35:10;;;;;;;;;;;;;;;17.22;56.76;100661.66;5047757;28;897;-57
2023/06/29 00:37:36;;;;;;;;;;;;;;;16.85;56.83;100651.03;5039292;28;1633;-57
2023/06/29 00:40:02;;;;;;;;;;;;;;;16.74;55.79;100653.78;5059471;28;1091;-58
2023/06/29 00:42:28;;;;;;;;;;;;;;;16.61;55.65;100651.63;5059254;28;1095;-57
2023/06/29 00:44:53;;;;;;;;;;;;;;;16.57;55.19;100656.81;5048235;28;1146;-58
2023/06/29 00:47:20;;;;;;;;;;;;;;;16.50;55.05;100660.97;5038593;28;1619;-58
2023/06/29 00:49:46;;;;;;;;;;;;;;;16.43;55.04;100664.78;5059104;28;1235;-57
2023/06/29 00:52:11;;;;;;;;;;;;;;;16.41;54.88;100674.41;5041147;28;1902;-57
2023/06/29 00:54:37;;;;;;;;;;;;;;;16.32;54.63;100678.81;5059185;28;1076;-57
2023/06/29 00:57:03;;;;;;;;;;;;;;;16.36;54.46;100677.16;5058641;28;1039;-57
2023/06/29 00:59:28;;;;;;;;;;;;;;;17.32;57.15;100680.03;5048000;28;918;-58
2023/06/29 01:01:53;;;;;;;;;;;;;;;17.27;57.42;100671.78;5042754;28;1164;-58
2023/06/29 01:04:24;;;;;;;;;;;;;;;16.97;56.59;100658.97;5059062;28;1131;-57
2023/06/29 01:06:56;;;;;;;;;;;;;;;16.72;56.34;100657.91;5040946;28;1200;-57
2023/06/29 01:09:22;;;;;;;;;;;;;;;16.69;55.63;100670.28;5058489;28;1012;-58
2023/06/29 01:11:48;;;;;;;;;;;;;;;16.60;55.33;100680.97;5026528;28;1905;-57
2023/06/29 01:14:13;;;;;;;;;;;;;;;16.51;55.07;100685.38;5040965;28;1231;-57
2023/06/29 01:16:39;;;;;;;;;;;;;;;16.45;54.94;100682.91;5041055;28;1220;-57
2023/06/29 01:19:05;;;;;;;;;;;;;;;16.39;54.76;100682.91;5058373;28;1077;-58
2023/06/29 01:21:30;;;;;;;;;;;;;;;16.38;54.57;100675.78;5040487;28;1144;-58
2023/06/29 01:23:57;;;;;;;;;;;;;;;16.34;54.48;100674.69;5046042;28;1171;-58
2023/06/29 01:26:22;;;;;;;;;;;;;;;16.28;54.41;100659.31;5057475;28;1402;-57
2023/06/29 01:28:51;;;;;;;;;;;;;;;17.06;56.96;100652.63;5058099;28;1102;-58
2023/06/29 01:31:17;;;;;;;;;;;;;;;17.35;57.29;100659.38;5057162;28;1223;-58
2023/06/29 01:33:42;;;;;;;;;;;;;;;16.95;56.83;100667.50;5057874;28;1984;-58
2023/06/29 01:36:19;;;;;;;;;;;;;;;16.75;56.06;100674.66;5058263;28;1061;-57
2023/06/29 01:39:11;;;;;;;;;;;;;;;16.67;55.71;100680.69;5040234;28;1032;-58
2023/06/29 01:41:38;;;;;;;;;;;;;;;16.49;55.32;100675.78;5055829;28;1561;-58
2023/06/29 01:44:04;;;;;;;;;;;;;;;16.48;54.90;100663.16;5040250;28;1297;-58
2023/06/29 01:46:30;;;;;;;;;;;;;;;16.41;54.64;100649.69;5040201;28;1144;-58
2023/06/29 01:48:55;;;;;;;;;;;;;;;16.36;54.63;100650.53;5057747;28;1140;-58
2023/06/29 01:51:21;;;;;;;;;;;;;;;16.30;54.63;100657.13;5023860;28;1595;-57
2023/06/29 01:53:48;;;;;;;;;;;;;;;16.97;56.44;100687.28;5057795;28;1981;-57
2023/06/29 01:56:13;;;;;;;;;;;;;;;17.43;57.07;100698.13;5058021;28;1016;-58
2023/06/29 01:58:39;;;;;;;;;;;;;;;16.95;56.76;100697.72;5034628;28;1309;-57
2023/06/29 02:01:05;;;;;;;;;;;;;;;16.79;56.39;100696.06;5031390;28;1215;-58
2023/06/29 02:03:32;;;;;;;;;;;;;;;16.69;55.51;100705.97;5057382;28;1127;-57
2023/06/29 02:05:57;;;;;;;;;;;;;;;16.60;55.39;100721.34;5057515;28;1150;-57
2023/06/29 02:08:22;;;;;;;;;;;;;;;16.52;55.24;100708.16;5057281;28;1151;-57
2023/06/29 02:10:48;;;;;;;;;;;;;;;16.50;54.81;100699.38;5057324;28;1147;-57
2023/06/29 02:13:13;;;;;;;;;;;;;;;16.38;54.74;100692.25;5026417;28;1907;-57
2023/06/29 02:15:39;;;;;;;;;;;;;;;16.34;54.60;100679.34;5039690;28;1592;-57
2023/06/29 02:18:05;;;;;;;;;;;;;;;17.31;56.91;100674.81;5039612;28;1211;-57
2023/06/29 02:20:31;;;;;;;;;;;;;;;17.17;56.92;100675.41;5039370;28;1166;-58
2023/06/29 02:22:56;;;;;;;;;;;;;;;16.83;56.65;100661.44;5034935;28;1096;-57
2023/06/29 02:25:22;;;;;;;;;;;;;;;16.74;55.99;100661.19;5037156;28;1591;-57
2023/06/29 02:27:47;;;;;;;;;;;;;;;16.62;55.39;100660.66;5055034;28;1135;-57
2023/06/29 02:30:13;;;;;;;;;;;;;;;16.53;55.28;100649.44;5057757;28;1099;-58
2023/06/29 02:32:39;;;;;;;;;;;;;;;16.48;54.97;100652.16;5052509;28;1910;-58
2023/06/29 02:35:05;;;;;;;;;;;;;;;16.40;54.90;100661.78;5048125;28;1056;-57
2023/06/29 02:37:32;;;;;;;;;;;;;;;16.76;56.27;100675.50;5039208;28;1079;-57
2023/06/29 02:39:58;;;;;;;;;;;;;;;17.65;56.81;100674.09;5030803;28;1131;-58
2023/06/29 02:42:24;;;;;;;;;;;;;;;17.06;56.99;100682.84;5038417;28;1119;-58
2023/06/29 02:44:49;;;;;;;;;;;;;;;16.87;56.29;100687.25;5057142;28;1080;-58
2023/06/29 02:47:15;;;;;;;;;;;;;;;16.73;55.71;100685.09;5051763;28;1183;-58
2023/06/29 02:49:40;;;;;;;;;;;;;;;16.62;55.45;100680.72;5018971;28;1270;-58
2023/06/29 02:52:06;;;;;;;;;;;;;;;16.50;55.16;100677.44;5023657;28;1962;-58
2023/06/29 02:54:32;;;;;;;;;;;;;;;16.50;55.00;100660.97;5039187;28;1217;-57
2023/06/29 02:56:57;;;;;;;;;;;;;;;16.39;54.95;100663.69;5056716;28;1111;-57
2023/06/29 02:59:26;;;;;;;;;;;;;;;16.41;54.38;100660.66;5056766;28;1119;-58
2023/06/29 03:01:52;;;;;;;;;;;;;;;16.35;54.28;100675.50;5037572;28;1127;-57
2023/06/29 03:04:17;;;;;;;;;;;;;;;16.26;54.44;100683.47;5031128;28;1425;-57
2023/06/29 03:06:43;;;;;;;;;;;;;;;16.34;54.35;100682.94;5038509;28;1152;-58
2023/06/29 03:09:08;;;;;;;;;;;;;;;17.35;57.08;100675.88;5056560;28;1095;-57
2023/06/29 03:11:34;;;;;;;;;;;;;;;17.27;56.89;100677.28;5051796;28;1906;-57
2023/06/29 03:13:59;;;;;;;;;;;;;;;16.80;56.87;100673.00;5046918;28;1218;-57
2023/06/29 03:16:25;;;;;;;;;;;;;;;16.73;56.10;100654.91;5056280;28;1112;-59
2023/06/29 03:18:50;;;;;;;;;;;;;;;16.64;55.46;100644.75;5056621;28;1172;-58
2023/06/29 03:21:18;;;;;;;;;;;;;;;16.55;55.44;100660.94;5055658;28;1100;-58
2023/06/29 03:23:43;;;;;;;;;;;;;;;16.48;55.17;100671.38;5048181;28;916;-59
2023/06/29 03:26:09;;;;;;;;;;;;;;;16.40;54.81;100667.28;5049890;28;1154;-59
2023/06/29 03:28:34;;;;;;;;;;;;;;;16.37;54.48;100679.63;5056120;28;1107;-59
2023/06/29 03:31:00;;;;;;;;;;;;;;;16.50;55.44;100707.63;5056100;28;1282;-58
2023/06/29 03:33:25;;;;;;;;;;;;;;;17.61;56.98;100674.69;5055745;28;1981;-58
2023/06/29 03:35:51;;;;;;;;;;;;;;;17.13;56.87;100662.50;5055744;28;1052;-59
2023/06/29 03:38:17;;;;;;;;;;;;;;;16.86;56.52;100680.13;5043336;28;1107;-59
2023/06/29 03:40:43;;;;;;;;;;;;;;;16.76;55.83;100698.28;5055989;28;1027;-58
2023/06/29 03:43:08;;;;;;;;;;;;;;;16.65;55.47;100726.00;5055496;28;1068;-58
2023/06/29 03:45:34;;;;;;;;;;;;;;;16.55;55.38;100721.31;5055958;28;1202;-58
2023/06/29 03:47:59;;;;;;;;;;;;;;;16.45;55.05;100694.69;5049463;28;1131;-58
2023/06/29 03:50:25;;;;;;;;;;;;;;;16.39;55.01;100699.38;5035755;28;1179;-59
2023/06/29 03:52:50;;;;;;;;;;;;;;;16.46;55.21;100720.25;5042463;28;1914;-57
2023/06/29 03:55:16;;;;;;;;;;;;;;;16.34;55.12;100724.09;5059942;28;1043;-57
2023/06/29 03:57:42;;;;;;;;;;;;;;;17.25;57.47;100705.06;5059913;28;1094;-58
2023/06/29 04:00:08;;;;;;;;;;;;;;;17.18;57.48;100687.22;5059581;28;1067;-56
2023/06/29 04:02:38;;;;;;;;;;;;;;;16.87;56.51;100690.84;5047326;28;977;-59
2023/06/29 04:05:03;;;;;;;;;;;;;;;16.73;56.14;100701.56;5059737;28;1064;-57
2023/06/29 04:07:29;;;;;;;;;;;;;;;16.61;55.49;100706.53;5059793;28;1147;-57
2023/06/29 04:09:54;;;;;;;;;;;;;;;16.54;55.21;100698.56;5059920;28;1128;-57
2023/06/29 04:12:20;;;;;;;;;;;;;;;16.48;55.12;100698.81;5049433;28;1989;-60
2023/06/29 04:14:46;;;;;;;;;;;;;;;16.55;55.93;100702.13;5042978;28;1159;-56
2023/06/29 04:17:11;;;;;;;;;;;;;;;16.46;55.29;100695.56;5060043;28;1047;-57
2023/06/29 04:19:36;;;;;;;;;;;;;;;16.35;55.44;100701.00;5059623;28;1083;-58
2023/06/29 04:22:02;;;;;;;;;;;;;;;17.33;57.64;100717.38;5059978;28;1043;-56
2023/06/29 04:24:28;;;;;;;;;;;;;;;17.28;57.84;100717.41;5055544;28;1127;-59
2023/06/29 04:26:53;;;;;;;;;;;;;;;16.92;57.13;100717.50;5049726;28;1147;-59
2023/06/29 04:29:19;;;;;;;;;;;;;;;16.77;56.51;100716.41;5059746;28;1254;-58
2023/06/29 04:31:44;;;;;;;;;;;;;;;16.66;55.94;100712.03;5059515;28;1961;-60
2023/06/29 04:34:10;;;;;;;;;;;;;;;16.54;55.72;100708.72;5058725;28;1044;-57
2023/06/29 04:36:35;;;;;;;;;;;;;;;16.54;55.36;100715.03;5049208;28;949;-57
2023/06/29 04:39:01;;;;;;;;;;;;;;;16.46;55.24;100714.75;5042843;28;1198;-59
2023/06/29 04:41:32;;;;;;;;;;;;;;;16.97;57.38;100713.91;5059381;28;1191;-58
2023/06/29 04:44:01;;;;;;;;;;;;;;;17.50;57.50;100716.22;5059201;28;1004;-57
2023/06/29 04:46:30;;;;;;;;;;;;;;;17.03;57.13;100719.13;5059206;28;1083;-58
2023/06/29 04:48:56;;;;;;;;;;;;;;;16.86;56.54;100718.59;5053252;28;1211;-59
2023/06/29 04:51:21;;;;;;;;;;;;;;;16.77;55.96;100719.16;5051172;28;1076;-60
2023/06/29 04:53:47;;;;;;;;;;;;;;;16.92;57.21;100718.31;5058891;28;1910;-59
2023/06/29 04:56:12;;;;;;;;;;;;;;;16.75;56.42;100724.06;5058766;28;1031;-57
2023/06/29 04:58:38;;;;;;;;;;;;;;;16.36;54.88;100716.38;5058939;28;1088;-59
2023/06/29 05:01:03;;;;;;;;;;;;;;;16.24;53.43;100707.59;5046931;28;860;-60
2023/06/29 05:03:29;;;;;;;;;;;;;;;16.10;52.76;100704.56;5052332;28;1146;-58
2023/06/29 05:05:54;;;;;;;;;;;;;;;15.98;51.98;100707.56;5038778;28;1155;-60
2023/06/29 05:08:20;;;;;;;;;;;;;;;16.02;51.31;100711.41;5056765;28;1083;-58
2023/06/29 05:10:45;;;;;;;;;;;;;;;15.84;51.29;100700.97;5059142;28;1111;-59
2023/06/29 05:13:11;;;;;;;;;;;;;;;15.88;50.97;100704.81;5054246;28;1902;-58
2023/06/29 05:15:36;;;;;;;;;;;;;;;15.84;50.65;100707.25;5038625;28;1128;-57
2023/06/29 05:18:02;;;;;;;;;;;;;;;15.87;50.16;100716.88;5042173;28;1148;-58
2023/06/29 05:20:27;;;;;;;;;;;;;;;15.76;50.20;100709.69;5058673;28;1091;-58
2023/06/29 05:22:53;;;;;;;;;;;;;;;15.78;50.35;100715.69;5058093;28;1020;-58
2023/06/29 05:25:18;;;;;;;;;;;;;;;15.75;50.23;100711.56;5048191;28;849;-59
2023/06/29 05:27:44;;;;;;;;;;;;;;;15.73;49.89;100708.28;5055242;28;1072;-59
2023/06/29 05:30:10;;;;;;;;;;;;;;;15.74;49.94;100720.91;5048136;28;1088;-57
2023/06/29 05:32:35;;;;;;;;;;;;;;;15.77;49.63;100705.81;5054694;28;1905;-55
2023/06/29 05:35:01;;;;;;;;;;;;;;;15.72;49.80;100707.47;5058332;28;1122;-56
2023/06/29 05:37:27;;;;;;;;;;;;;;;15.62;49.62;100712.91;5044555;28;894;-57
2023/06/29 05:39:54;;;;;;;;;;;;;;;15.67;49.50;100710.19;5058319;28;1032;-58
2023/06/29 05:42:20;;;;;;;;;;;;;;;15.65;49.35;100709.63;5057905;28;1056;-58
2023/06/29 05:44:45;;;;;;;;;;;;;;;15.72;49.16;100707.47;5057818;28;1095;-58
2023/06/29 05:47:11;;;;;;;;;;;;;;;15.68;49.18;100721.97;5058216;28;1063;-55
2023/06/29 05:49:36;;;;;;;;;;;;;;;15.69;49.21;100718.97;5057818;28;1195;-56
2023/06/29 05:52:02;;;;;;;;;;;;;;;15.63;49.11;100731.00;5041125;28;1986;-54
2023/06/29 05:54:27;;;;;;;;;;;;;;;15.66;49.12;100730.47;5048593;28;1032;-59
2023/06/29 05:56:53;;;;;;;;;;;;;;;15.63;49.00;100735.69;5057884;28;1197;-59
2023/06/29 05:59:18;;;;;;;;;;;;;;;15.58;49.00;100736.47;5057413;28;1052;-55
2023/06/29 06:01:44;;;;;;;;;;;;;;;15.62;49.16;100739.50;5043727;28;892;-53
2023/06/29 06:04:09;;;;;;;;;;;;;;;15.64;49.00;100734.56;5057669;28;1280;-56
2023/06/29 06:06:36;;;;;;;;;;;;;;;15.62;48.97;100732.09;5057751;28;1004;-60
2023/06/29 06:09:01;;;;;;;;;;;;;;;15.63;49.00;100725.53;5057088;28;1116;-58
2023/06/29 06:11:27;;;;;;;;;;;;;;;15.59;48.58;100729.91;5057815;28;1099;-59
2023/06/29 06:13:52;;;;;;;;;;;;;;;15.53;48.80;100730.97;5052459;28;1988;-57
2023/06/29 06:16:18;;;;;;;;;;;;;;;15.60;48.74;100736.19;5050474;28;1347;-61
2023/06/29 06:18:43;;;;;;;;;;;;;;;15.53;48.59;100730.97;5056889;28;1281;-54
2023/06/29 06:21:09;;;;;;;;;;;;;;;15.55;48.76;100735.06;5056131;28;1305;-58
2023/06/29 06:23:34;;;;;;;;;;;;;;;15.53;48.49;100737.28;5056543;28;1368;-56
2023/06/29 06:26:00;;;;;;;;;;;;;;;15.53;48.60;100736.47;5056111;28;1040;-58
2023/06/29 06:28:26;;;;;;;;;;;;;;;15.48;48.55;100734.50;5056053;28;1388;-62
2023/06/29 06:30:52;;;;;;;;;;;;;;;15.55;48.41;100737.00;5038584;28;1087;-58
2023/06/29 06:33:17;;;;;;;;;;;;;;;15.55;48.53;100742.50;5056345;28;1983;-58
2023/06/29 06:35:44;;;;;;;;;;;;;;;15.49;48.46;100746.31;5056396;28;1253;-60
2023/06/29 06:38:09;;;;;;;;;;;;;;;15.44;48.56;100749.81;5055900;28;1250;-58
2023/06/29 06:40:35;;;;;;;;;;;;;;;15.56;48.27;100755.09;5056986;28;1114;-59
2023/06/29 06:43:00;;;;;;;;;;;;;;;15.47;48.35;100753.97;5056947;28;1203;-58
2023/06/29 06:45:27;;;;;;;;;;;;;;;15.40;48.70;100756.94;5039228;28;1282;-58
2023/06/29 06:47:53;;;;;;;;;;;;;;;15.45;48.67;100756.97;5056718;28;1349;-58
2023/06/29 06:50:20;;;;;;;;;;;;;;;15.48;48.45;100750.13;5056417;28;1143;-58
2023/06/29 06:52:46;;;;;;;;;;;;;;;15.40;49.02;100751.44;5056701;28;1917;-58
2023/06/29 06:55:11;;;;;;;;;;;;;;;15.49;49.25;100747.13;5057259;28;1337;-58
2023/06/29 06:57:37;;;;;;;;;;;;;;;15.70;49.99;100749.97;5056396;28;1512;-58
2023/06/29 07:00:03;;;;;;;;;;;;;;;15.56;50.07;100757.84;5055818;28;1356;-57
2023/06/29 07:02:28;;;;;;;;;;;;;;;15.56;49.65;100744.16;5047548;28;997;-59
2023/06/29 07:04:54;;;;;;;;;;;;;;;15.62;49.55;100747.72;5052293;28;1088;-57
2023/06/29 07:07:19;;;;;;;;;;;;;;;15.58;49.28;100750.16;5056473;28;1409;-56
2023/06/29 07:09:45;;;;;;;;;;;;;;;15.57;49.03;100737.56;5056031;28;1106;-54
2023/06/29 07:12:11;;;;;;;;;;;;;;;15.51;49.02;100733.16;5056127;28;1980;-56
2023/06/29 07:14:36;;;;;;;;;;;;;;;15.52;49.22;100729.31;5055413;28;1242;-52
2023/06/29 07:17:02;;;;;;;;;;;;;;;15.50;48.92;100742.47;5054775;28;1313;-53
2023/06/29 07:19:28;;;;;;;;;;;;;;;15.53;49.03;100733.72;5005412;28;3952;-55
2023/06/29 07:21:54;;;;;;;;;;;;;;;15.57;48.76;100737.56;5001126;28;1064;-53
2023/06/29 07:24:20;;;;;;;;;;;;;;;15.49;48.83;100729.88;4995298;28;1032;-54
2023/06/29 07:26:45;;;;;;;;;;;;;;;15.52;48.93;100729.31;4995621;28;1124;-56
2023/06/29 07:29:11;;;;;;;;;;;;;;;15.51;48.68;100730.41;4996328;28;993;-51
2023/06/29 07:31:36;;;;;;;;;;;;;;;15.51;48.98;100731.22;4996764;28;1120;-54
2023/06/29 07:34:02;;;;;;;;;;;;;;;15.48;48.63;100722.72;4996906;28;1907;-55
2023/06/29 07:36:29;;;;;;;;;;;;;;;15.47;48.91;100726.56;4996353;28;1147;-55
2023/06/29 07:38:55;;;;;;;;;;;;;;;15.47;48.67;100735.59;4997404;28;1057;-51
2023/06/29 07:41:21;;;;;;;;;;;;;;;15.49;48.60;100740.84;4996703;28;1120;-51
2023/06/29 07:43:48;;;;;;;;;;;;;;;15.52;48.59;100745.78;4995974;28;1025;-53
2023/06/29 07:46:14;;;;;;;;;;;;;;;15.43;48.59;100733.66;4996407;28;1044;-53
2023/06/29 07:48:39;;;;;;;;;;;;;;;15.47;48.88;100730.09;4996100;28;1267;-51
2023/06/29 07:51:05;;;;;;;;;;;;;;;15.38;48.68;100732.53;4996769;28;1270;-52
2023/06/29 07:53:31;;;;;;;;;;;;;;;15.57;48.57;100737.56;5009395;28;1965;-53
2023/06/29 07:56:00;;;;;;;;;;;;;;;15.51;48.33;100728.47;4996973;28;1184;-53
2023/06/29 07:58:28;;;;;;;;;;;;;;;15.46;48.77;100735.84;4996433;28;1152;-51
2023/06/29 08:00:54;;;;;;;;;;;;;;;15.51;48.45;100722.19;4995697;28;1337;-53
2023/06/29 08:03:20;;;;;;;;;;;;;;;15.42;48.89;100734.75;4995148;28;1423;-52
2023/06/29 08:05:46;;;;;;;;;;;;;;;15.44;48.70;100729.84;4995747;28;1092;-54
2023/06/29 08:08:12;;;;;;;;;;;;;;;15.46;48.81;100733.13;4995425;28;1081;-50
2023/06/29 08:10:38;;;;;;;;;;;;;;;15.49;48.69;100730.69;4996931;28;1188;-56
2023/06/29 08:13:03;;;;;;;;;;;;;;;15.49;48.34;100722.47;4995822;28;1909;-52
2023/06/29 08:15:29;;;;;;;;;;;;;;;15.52;48.45;100726.59;4996659;28;1349;-56
2023/06/29 08:17:54;;;;;;;;;;;;;;;15.44;48.51;100732.56;4996675;28;1148;-54
2023/06/29 08:20:19;;;;;;;;;;;;;;;15.39;48.78;100722.41;4996337;28;1060;-53
2023/06/29 08:22:47;;;;;;;;;;;;;;;15.44;48.98;100721.63;4996506;28;1302;-54
2023/06/29 08:25:12;;;;;;;;;;;;;;;15.57;49.34;100719.22;4995739;28;1091;-56
2023/06/29 08:27:39;;;;;;;;;;;;;;;15.56;49.54;100714.00;4996636;28;1080;-55
2023/06/29 08:30:05;;;;;;;;;;;;;;;15.51;49.37;100717.53;4996689;28;1486;-56
2023/06/29 08:32:30;;;;;;;;;;;;;;;15.56;49.17;100719.47;4995953;28;1983;-57
2023/06/29 08:34:56;;;;;;;;;;;;;;;15.56;49.19;100730.44;4995805;28;1458;-56
2023/06/29 08:37:21;;;;;;;;;;;;;;;15.50;49.14;100717.78;4995065;28;1176;-51
2023/06/29 08:39:47;;;;;;;;;;;;;;;15.56;48.92;100714.00;4997015;28;1036;-53
2023/06/29 08:42:12;;;;;;;;;;;;;;;15.58;48.67;100706.31;4999826;28;1247;-48
2023/06/29 08:44:38;;;;;;;;;;;;;;;15.57;48.87;100707.41;4999483;28;1571;-52
2023/06/29 08:47:04;;;;;;;;;;;;;;;15.58;48.54;100706.31;4999118;28;1089;-53
2023/06/29 08:49:29;;;;;;;;;;;;;;;15.53;48.95;100703.56;4998285;28;1163;-52
2023/06/29 08:51:58;;;;;;;;;;;;;;;15.52;48.76;100708.22;4999877;28;1902;-57
2023/06/29 08:54:26;;;;;;;;;;;;;;;15.63;48.73;100700.06;4999876;28;1040;-57
2023/06/29 08:56:52;;;;;;;;;;;;;;;15.62;49.22;100706.63;5000056;28;1139;-51
2023/06/29 08:59:18;;;;;;;;;;;;;;;15.62;49.17;100693.72;4999493;28;1107;-56
2023/06/29 09:01:43;;;;;;;;;;;;;;;15.64;49.10;100693.44;4998203;28;1092;-53
2023/06/29 09:04:08;;;;;;;;;;;;;;;15.66;48.81;100702.25;4997666;28;1065;-56
2023/06/29 09:06:34;;;;;;;;;;;;;;;15.63;49.00;100691.81;4999612;28;1173;-57
2023/06/29 09:09:00;;;;;;;;;;;;;;;15.65;48.98;100684.97;4999534;28;1152;-57
2023/06/29 09:11:25;;;;;;;;;;;;;;;15.59;49.24;100694.28;4999312;28;1383;-57
2023/06/29 09:13:51;;;;;;;;;;;;;;;15.56;49.15;100686.59;4997636;28;1914;-53
2023/06/29 09:16:19;;;;;;;;;;;;;;;15.54;48.73;100684.13;4998104;28;1069;-58
2023/06/29 09:18:54;;;;;;;;;;;;;;;15.51;48.88;100675.59;4998826;28;1096;-57
2023/06/29 09:21:21;;;;;;;;;;;;;;;15.62;48.55;100681.94;4998816;28;1076;-57
2023/06/29 09:23:46;;;;;;;;;;;;;;;15.56;48.69;100683.84;4998740;28;1235;-58
2023/06/29 09:26:12;;;;;;;;;;;;;;;15.53;48.64;100676.16;4998831;28;981;-58
2023/06/29 09:28:41;;;;;;;;;;;;;;;15.62;48.54;100673.72;4998793;28;1203;-52
2023/06/29 09:31:08;;;;;;;;;;;;;;;15.59;48.46;100674.28;4997421;28;1333;-53
2023/06/29 09:33:34;;;;;;;;;;;;;;;15.56;48.61;100681.91;4995408;28;1986;-58
2023/06/29 09:36:00;;;;;;;;;;;;;;;15.52;48.58;100680.00;4989511;28;1464;-57
2023/06/29 09:38:29;;;;;;;;;;;;;;;15.48;48.53;100685.19;4997006;28;1349;-56
2023/06/29 09:40:55;;;;;;;;;;;;;;;15.62;48.25;100687.44;4999005;28;1144;-59
2023/06/29 09:43:27;;;;;;;;;;;;;;;15.55;48.29;100690.41;4998948;28;1036;-54
2023/06/29 09:45:57;;;;;;;;;;;;;;;15.61;48.51;100689.31;4995938;28;1481;-51
2023/06/29 09:48:23;;;;;;;;;;;;;;;15.59;48.33;100688.78;4997544;28;1364;-52
2023/06/29 09:50:51;;;;;;;;;;;;;;;15.63;48.10;100687.16;4991762;28;1550;-57
2023/06/29 09:53:17;;;;;;;;;;;;;;;15.57;48.19;100686.31;4998660;28;1968;-54
2023/06/29 09:55:42;;;;;;;;;;;;;;;15.57;48.25;100674.50;4986105;28;1375;-55
2023/06/29 09:58:08;;;;;;;;;;;;;;;15.60;48.46;100676.75;4996625;28;1005;-58
2023/06/29 10:00:34;;;;;;;;;;;;;;;15.53;48.61;100676.97;4998581;28;1207;-47
2023/06/29 10:02:59;;;;;;;;;;;;;;;15.67;48.29;100671.81;4998160;28;878;-53
2023/06/29 10:05:25;;;;;;;;;;;;;;;15.67;48.49;100669.09;4997222;28;1268;-56
2023/06/29 10:07:53;;;;;;;;;;;;;;;15.65;48.68;100668.50;4997768;28;1130;-55
2023/06/29 10:10:18;;;;;;;;;;;;;;;15.64;48.51;100677.84;4997976;28;1172;-55
2023/06/29 10:12:45;;;;;;;;;;;;;;;15.57;48.70;100667.13;4996686;28;1906;-53
2023/06/29 10:15:10;;;;;;;;;;;;;;;15.60;48.71;100676.75;4997833;28;1025;-53
2023/06/29 10:17:46;;;;;;;;;;;;;;;15.67;48.58;100666.34;5010858;28;1305;-53
2023/06/29 10:20:12;;;;;;;;;;;;;;;15.62;48.46;100669.06;4996962;28;1204;-55
2023/06/29 10:22:38;;;;;;;;;;;;;;;15.69;48.48;100669.63;4994432;28;1338;-52
2023/06/29 10:25:04;;;;;;;;;;;;;;;15.61;48.86;100664.66;4997761;28;1125;-57
2023/06/29 10:27:30;;;;;;;;;;;;;;;15.71;48.71;100666.59;4997075;28;1333;-58
2023/06/29 10:29:56;;;;;;;;;;;;;;;15.63;48.73;100664.41;4997893;28;1350;-58
2023/06/29 10:32:31;;;;;;;;;;;;;;;15.73;48.53;100661.69;4996461;28;1898;-58
2023/06/29 10:34:59;;;;;;;;;;;;;;;15.68;48.69;100647.97;4996881;28;1099;-58
2023/06/29 10:37:34;;;;;;;;;;;;;;;15.66;48.65;100658.38;4997289;28;1176;-58
2023/06/29 10:40:00;;;;;;;;;;;;;;;15.64;48.52;100661.41;5006551;28;1176;-57
2023/06/29 10:42:26;;;;;;;;;;;;;;;15.73;49.21;100659.75;5001208;28;1146;-57
2023/06/29 10:44:51;;;;;;;;;;;;;;;15.74;48.86;100660.59;4997528;28;1360;-56
2023/06/29 10:47:36;;;;;;;;;;;;;;;15.66;48.86;100658.38;4997225;28;1449;-53
2023/06/29 10:50:08;;;;;;;;;;;;;;;15.70;48.52;100656.75;4993198;28;1438;-52
2023/06/29 10:52:33;;;;;;;;;;;;;;;15.72;48.36;100658.13;4997049;28;1913;-55
2023/06/29 10:55:14;;;;;;;;;;;;;;;15.67;48.38;100647.16;4996138;28;1053;-56
2023/06/29 10:57:41;;;;;;;;;;;;;;;15.77;48.15;100648.25;4996625;28;1009;-56
2023/06/29 11:00:07;;;;;;;;;;;;;;;15.76;48.32;100654.84;4996747;28;1135;-54
2023/06/29 11:02:33;;;;;;;;;;;;;;;15.71;48.36;100645.53;4996386;28;1223;-53
2023/06/29 11:04:59;;;;;;;;;;;;;;;15.73;48.66;100646.06;4997111;28;1147;-49
2023/06/29 11:07:24;;;;;;;;;;;;;;;15.73;48.37;100632.34;4996564;28;1685;-47
2023/06/29 11:09:58;;;;;;;;;;;;;;;15.69;48.46;100647.69;4995945;28;1129;-51
2023/06/29 11:12:24;;;;;;;;;;;;;;;15.76;48.49;100630.19;4997029;28;1983;-50
2023/06/29 11:14:53;;;;;;;;;;;;;;;15.72;48.41;100641.69;4996717;28;1097;-47
2023/06/29 11:17:19;;;;;;;;;;;;;;;15.78;48.15;100627.97;4996489;28;1214;-51
2023/06/29 11:19:49;;;;;;;;;;;;;;;15.72;48.41;100647.19;4988026;28;1312;-53
2023/06/29 11:22:15;;;;;;;;;;;;;;;15.82;48.10;100634.59;4996802;28;1005;-51
2023/06/29 11:24:41;;;;;;;;;;;;;;;15.81;48.31;100627.44;4989237;28;1399;-53
2023/06/29 11:27:06;;;;;;;;;;;;;;;15.77;48.25;100627.16;4996533;28;838;-46
2023/06/29 11:29:32;;;;;;;;;;;;;;;15.77;48.36;100629.06;4996675;28;1068;-52
2023/06/29 11:32:00;;;;;;;;;;;;;;;15.68;48.47;100637.84;4996551;28;1984;-46
2023/06/29 11:34:25;;;;;;;;;;;;;;;15.79;48.37;100618.66;4996296;28;1071;-48
2023/06/29 11:36:51;;;;;;;;;;;;;;;15.85;48.16;100626.66;4996809;28;1072;-46
2023/06/29 11:39:17;;;;;;;;;;;;;;;15.82;48.27;100629.09;4996263;28;1037;-52
2023/06/29 11:41:43;;;;;;;;;;;;;;;15.73;48.11;100618.63;4996569;28;1068;-51
2023/06/29 11:44:08;;;;;;;;;;;;;;;15.83;48.19;100619.78;4996774;28;1037;-53
2023/06/29 11:46:34;;;;;;;;;;;;;;;15.80;48.19;100626.63;4996856;28;1219;-52
2023/06/29 11:49:01;;;;;;;;;;;;;;;15.75;48.49;100615.63;4995747;28;1221;-50
2023/06/29 11:51:28;;;;;;;;;;;;;;;15.77;48.33;100607.97;4995107;28;882;-53
2023/06/29 11:53:54;;;;;;;;;;;;;;;15.85;48.06;100609.38;4995304;28;1917;-45
2023/06/29 11:56:23;;;;;;;;;;;;;;;15.80;48.18;100612.13;4996887;28;1231;-53
2023/06/29 11:58:49;;;;;;;;;;;;;;;15.81;48.12;100603.63;4996566;28;1144;-53
2023/06/29 12:01:14;;;;;;;;;;;;;;;15.79;48.26;100614.03;4996640;28;1075;-52
2023/06/29 12:03:40;;;;;;;;;;;;;;;15.84;48.22;100605.00;4996052;28;982;-47
2023/06/29 12:06:05;;;;;;;;;;;;;;;15.83;48.31;100603.34;4996110;28;1174;-50
2023/06/29 12:08:38;;;;;;;;;;;;;;;15.77;48.56;100615.34;4996625;28;1145;-49
2023/06/29 12:11:03;;;;;;;;;;;;;;;15.84;48.44;100610.47;4996580;28;1128;-53
2023/06/29 12:13:29;;;;;;;;;;;;;;;15.85;48.04;100612.09;4996185;28;1922;-49
2023/06/29 12:15:54;;;;;;;;;;;;;;;15.82;48.17;100607.19;4997880;28;1256;-54
2023/06/29 12:18:20;;;;;;;;;;;;;;;15.87;47.84;100609.94;4998652;28;1435;-47
2023/06/29 12:20:46;;;;;;;;;;;;;;;15.86;48.00;100613.75;4999838;28;1128;-53
2023/06/29 12:23:12;;;;;;;;;;;;;;;15.79;48.42;100607.69;5000301;28;1060;-53
2023/06/29 12:25:47;;;;;;;;;;;;;;;15.83;48.31;100612.38;5000082;28;862;-49
2023/06/29 12:28:13;;;;;;;;;;;;;;;15.86;48.01;100608.28;5000188;28;1139;-48
2023/06/29 12:30:39;;;;;;;;;;;;;;;15.85;48.35;100595.66;5007994;28;1347;-56
2023/06/29 12:33:05;;;;;;;;;;;;;;;15.84;48.08;100600.31;4998618;28;1915;-55
2023/06/29 12:35:31;;;;;;;;;;;;;;;15.88;48.33;100597.88;4998532;28;1337;-53
2023/06/29 12:37:56;;;;;;;;;;;;;;;15.74;48.43;100597.56;4998859;28;1032;-53
2023/06/29 12:40:21;;;;;;;;;;;;;;;15.82;48.39;100590.72;4998859;28;998;-54
2023/06/29 12:42:47;;;;;;;;;;;;;;;15.79;48.15;100585.75;5031027;28;1093;-53